Latest Weather Observations for Warwick

IDQ60901

Issued at 8:25 pm EST Thursday 2 October 2014 (issued every 10 minutes, with the page automatically refreshed every 10 minutes)

About weather observations | Map of Brisbane area stations | Latest observations for Brisbane area | Other Formats
Station Details ID: 041525 Name: WARWICK Lat: -28.21 Lon: 152.10 Height: 475.4 m
Data from the previous 72 hours. | See also: Recent months at Warwick
Date/Time
EST
Tmp

°C
App
Tmp
°C
Dew
Point
°C
Rel
Hum
%
Delta-T

°C
Wind Press
QNH
hPa
Press
MSL
hPa
Rain
since
9 am
mm
Dir
 
Spd
km/h
Gust
km/h
Spd
kts
Gust
kts
02/08:00pm 16.6 12.8 7.6 55 4.6 NE 17 22 9 12 1019.7 1018.2 0.0
02/07:30pm 16.2 13.9 7.6 56 4.4 ENE 9 13 5 7 1019.5 1018.0 0.0
02/07:00pm 18.2 14.7 7.1 48 5.7 N 15 17 8 9 1019.5 1018.0 0.0
02/06:30pm 19.8 16.3 7.3 44 6.5 N 15 20 8 11 1019.1 1017.7 0.0
02/06:00pm 20.4 17.4 7.7 44 6.7 NNW 13 17 7 9 1018.9 1017.5 0.0
02/05:30pm 21.7 18.4 8.0 41 7.3 N 15 22 8 12 1018.6 1017.1 0.0
02/05:00pm 22.6 20.0 7.8 38 7.9 NNW 11 20 6 11 1018.6 1017.1 0.0
02/04:30pm 23.4 20.4 7.5 36 8.5 N 13 19 7 10 1018.3 1016.8 0.0
02/04:00pm 23.8 21.9 7.6 35 8.7 W 7 13 4 7 1018.2 1016.7 0.0
02/03:30pm 23.8 20.8 5.9 31 9.3 WNW 11 19 6 10 1018.2 1016.7 0.0
02/03:00pm 23.9 20.9 7.7 35 8.7 NW 13 20 7 11 1018.3 1016.8 0.0
02/02:30pm 24.0 22.1 7.6 35 8.8 NW 7 15 4 8 1018.6 1017.1 0.0
02/02:00pm 23.4 21.1 5.8 32 9.1 NNW 7 13 4 7 1018.9 1017.5 0.0
02/01:30pm 23.6 21.3 7.5 35 8.6 NW 9 17 5 9 1019.3 1017.9 0.0
02/01:00pm 22.4 21.3 7.0 37 8.1 W 2 13 1 7 1019.7 1018.2 0.0
02/12:30pm 21.2 19.9 6.2 37 7.7 NNE 2 9 1 5 1020.1 1018.6 0.0
02/12:00pm 21.2 19.5 5.7 36 7.9 ENE 4 13 2 7 1020.4 1018.9 0.0
02/11:30am 21.9 19.6 7.3 39 7.7 ESE 9 17 5 9 1020.9 1019.5 0.0
02/11:00am 20.0 17.1 6.6 41 6.9 NE 11 19 6 10 1021.3 1019.9 0.0
02/10:30am 20.0 17.0 6.0 40 7.1 E 11 19 6 10 1021.7 1020.2 0.0
02/10:00am 18.6 17.1 6.6 45 6.1 E 4 9 2 5 1021.8 1020.3 0.0
02/09:30am 18.0 15.4 6.0 45 6.0 SSE 9 20 5 11 1022.0 1020.5 0.0
02/09:00am 17.5 14.2 6.4 48 5.6 SSE 13 22 7 12 1022.2 1020.7 0.0
02/08:30am 17.0 12.9 6.4 49 5.3 SSE 17 26 9 14 1022.3 1020.8 0.0
02/08:00am 15.7 11.6 6.2 53 4.7 SE 17 24 9 13 1022.4 1020.9 0.0
02/07:30am 14.6 10.8 6.0 56 4.2 SE 15 24 8 13 1022.2 1020.7 0.0
02/07:00am 13.4 9.6 6.0 61 3.6 SSE 15 24 8 13 1022.2 1020.7 0.0
02/06:30am 11.7 9.5 6.3 69 2.6 SE 7 13 4 7 1021.9 1020.4 0.0
02/06:00am 9.3 7.6 5.7 78 1.7 SE 4 9 2 5 1021.4 1020.0 0.0
02/05:30am 8.8 7.5 5.8 81 1.4 ESE 2 6 1 3 1021.1 1019.7 0.0
02/05:00am 9.1 6.4 5.4 77 1.7 SE 9 13 5 7 1020.6 1019.1 0.0
02/04:30am 8.8 7.0 5.6 80 1.5 ESE 4 9 2 5 1020.2 1018.7 0.0
02/04:00am 9.3 7.9 5.7 78 1.7 SE 2 7 1 4 1019.9 1018.4 0.0
02/03:30am 9.8 8.8 5.5 74 2.0 CALM 0 0 0 0 1019.9 1018.4 0.0
02/03:00am 10.1 8.4 5.9 75 2.0 ESE 4 7 2 4 1020.0 1018.5 0.0
02/02:30am 10.5 8.8 6.1 74 2.1 SE 4 9 2 5 1020.1 1018.6 0.0
02/02:00am 11.3 8.6 5.8 69 2.6 SE 9 13 5 7 1020.4 1018.9 0.0
02/01:30am 11.0 9.0 6.2 72 2.3 SE 6 11 3 6 1020.3 1018.8 0.0
02/01:00am 12.0 9.0 6.0 66 2.9 SE 11 17 6 9 1020.5 1019.0 0.0
02/12:30am 12.5 9.1 6.1 65 3.1 SE 13 20 7 11 1020.5 1019.0 0.0
02/12:00am 12.9 8.9 6.6 65 3.1 SE 17 28 9 15 1020.7 1019.3 0.0
 
Date/Time
EST
Tmp

°C
App
Tmp
°C
Dew
Point
°C
Rel
Hum
%
Delta-T

°C
Wind Press
QNH
hPa
Press
MSL
hPa
Rain
since
9 am
mm
Dir
 
Spd
km/h
Gust
km/h
Spd
kts
Gust
kts
01/11:30pm 13.0 9.4 6.7 65 3.1 SE 15 26 8 14 1020.6 1019.1 0.0
01/11:00pm 13.3 10.5 6.8 64 3.2 SSE 11 19 6 10 1020.6 1019.1 0.0
01/10:30pm 14.0 10.1 7.2 63 3.4 SSE 17 30 9 16 1020.3 1018.8 0.0
01/10:00pm 14.4 10.6 7.7 64 3.4 SSE 17 28 9 15 1020.2 1018.7 0.0
01/09:30pm 15.0 11.5 8.9 67 3.2 SSE 17 30 9 16 1020.0 1018.5 0.0
01/09:00pm 15.5 11.3 9.9 69 3.0 SSE 22 35 12 19 1019.6 1018.1 0.0
01/08:30pm 16.2 13.3 11.1 72 2.8 SSE 17 32 9 17 1019.3 1017.9 0.0
01/08:00pm 17.0 14.4 12.0 72 2.8 SSE 17 32 9 17 1018.7 1017.2 0.0
01/07:30pm 18.3 14.9 12.5 69 3.3 SSE 22 35 12 19 1017.9 1016.4 0.0
01/07:00pm 19.8 16.0 12.3 62 4.3 SSE 24 41 13 22 1017.0 1015.6 0.0
01/06:30pm 22.0 17.7 1.2 25 9.8 WSW 13 20 7 11 1016.0 1014.5 0.0
01/06:00pm 24.1 18.0 0.3 21 11.2 WSW 22 35 12 19 1015.7 1014.2 0.0
01/05:30pm 26.0 18.9 -1.5 16 12.7 SW 26 35 14 19 1015.4 1013.9 0.0
01/05:00pm 27.3 18.8 -3.7 13 13.9 SW 32 43 17 23 1014.9 1013.4 0.0
01/04:30pm 28.2 20.1 -3.1 13 14.3 SW 30 43 16 23 1014.7 1013.2 0.0
01/04:00pm 29.3 21.1 -0.7 14 14.4 SW 32 46 17 25 1014.4 1012.9 0.0
01/03:30pm 29.5 21.3 -1.0 14 14.6 SW 32 50 17 27 1014.1 1012.6 0.0
01/03:22pm 29.9 22.3 -1.8 12 15.0 WSW 28 50 15 27 1014.0 1012.5 0.0
01/03:00pm 30.1 22.6 0.9 15 14.5 WSW 30 46 16 25 1014.0 1012.5 0.0
01/02:54pm 30.2 22.8 -0.5 13 14.9 SW 28 46 15 25 1013.9 1012.4 0.0
01/02:30pm 30.8 23.6 1.0 15 14.9 SW 28 43 15 23 1013.9 1012.4 0.0
01/02:00pm 30.6 23.4 0.9 15 14.8 WSW 28 39 15 21 1014.2 1012.7 0.0
01/01:30pm 30.3 24.5 2.1 16 14.3 W 22 37 12 20 1014.6 1013.1 0.0
01/01:00pm 30.0 23.7 1.8 16 14.2 WSW 24 43 13 23 1015.1 1013.5 0.0
01/12:30pm 29.7 23.4 1.5 16 14.1 W 24 37 13 20 1015.4 1013.9 0.0
01/12:00pm 28.7 25.2 5.3 22 12.4 W 13 20 7 11 1015.8 1014.3 0.0
01/11:30am 27.4 24.7 10.3 34 9.8 W 15 24 8 13 1016.5 1015.0 0.0
01/11:00am 26.0 23.3 9.1 34 9.4 W 13 24 7 13 1017.0 1015.6 0.0
01/10:30am 24.2 20.8 10.6 42 7.7 WNW 19 30 10 16 1017.6 1016.1 0.0
01/10:00am 24.1 21.7 10.2 41 7.8 WNW 13 20 7 11 1018.1 1016.6 0.0
01/09:30am 23.1 21.0 11.1 46 6.8 WNW 13 20 7 11 1018.2 1017.3 0.0
01/09:00am 21.4 18.5 10.9 51 5.9 NW 17 28 9 15 1018.3 1017.4 0.0
01/08:30am 20.6 18.3 11.6 56 5.1 NNW 15 22 8 12 1018.4 1017.5 0.0
01/08:00am 19.7 17.3 11.3 58 4.7 WNW 15 24 8 13 1018.9 1018.0 0.0
01/07:30am 18.4 16.4 11.4 63 3.9 WNW 13 20 7 11 1018.9 1018.0 0.0
01/07:00am 16.1 15.8 11.4 73 2.6 SSW 4 11 2 6 1018.9 1018.0 0.0
01/06:30am 13.7 13.5 10.3 80 1.8 NNW 2 7 1 4 1018.5 1017.6 0.0
01/06:00am 10.8 10.7 9.6 92 0.6 CALM 0 0 0 0 1018.1 1017.2 0.0
01/05:30am 9.8 9.4 8.2 90 0.8 CALM 0 0 0 0 1017.5 1016.5 0.0
01/05:00am 10.8 10.7 9.4 91 0.7 CALM 0 0 0 0 1016.9 1016.0 0.0
01/04:30am 10.5 10.3 8.9 90 0.8 CALM 0 0 0 0 1016.6 1015.7 0.0
01/04:00am 11.1 11.0 9.5 90 0.8 CALM 0 0 0 0 1016.5 1015.6 0.0
01/03:30am 11.4 11.5 10.1 92 0.7 CALM 0 0 0 0 1016.3 1015.4 0.0
01/03:00am 11.6 11.5 9.5 87 1.1 CALM 0 0 0 0 1016.4 1015.5 0.0
01/02:30am 12.5 12.5 9.8 83 1.4 CALM 0 0 0 0 1016.4 1015.5 0.0
01/02:00am 12.7 12.9 10.6 87 1.1 CALM 0 0 0 0 1016.6 1015.7 0.0
01/01:30am 12.4 12.3 9.3 81 1.6 CALM 0 0 0 0 1016.9 1016.0 0.0
01/01:00am 13.6 13.4 9.2 75 2.3 CALM 0 0 0 0 1017.1 1016.2 0.0
01/12:30am 13.8 13.7 9.4 75 2.3 CALM 0 0 0 0 1017.6 1016.6 0.0
01/12:00am 14.1 14.0 9.5 74 2.4 CALM 0 0 0 0 1017.9 1017.0 0.0
 
Date/Time
EST
Tmp

°C
App
Tmp
°C
Dew
Point
°C
Rel
Hum
%
Delta-T

°C
Wind Press
QNH
hPa
Press
MSL
hPa
Rain
since
9 am
mm
Dir
 
Spd
km/h
Gust
km/h
Spd
kts
Gust
kts
30/11:30pm 15.2 15.5 10.8 75 2.4 CALM 0 0 0 0 1018.0 1017.1 0.0
30/11:00pm 15.3 15.5 10.7 74 2.5 CALM 0 0 0 0 1018.0 1017.1 0.0
30/10:30pm 16.9 17.2 10.9 67 3.3 CALM 0 0 0 0 1018.1 1017.2 0.0
30/10:00pm 17.1 16.6 10.9 67 3.4 W 4 9 2 5 1018.3 1017.4 0.0
30/09:30pm 17.6 16.5 10.7 64 3.8 W 7 11 4 6 1018.2 1017.3 0.0
30/09:00pm 18.2 16.8 9.0 55 4.9 SW 6 11 3 6 1018.2 1017.3 0.0
30/08:30pm 20.3 19.2 10.6 53 5.4 ENE 7 9 4 5 1018.1 1017.2 0.0
30/08:00pm 20.8 19.5 10.1 50 5.9 NE 7 13 4 7 1017.8 1016.8 0.0
30/07:30pm 22.1 19.1 10.5 47 6.5 N 17 20 9 11 1017.5 1016.5 0.0
30/07:00pm 22.5 20.0 9.6 44 7.1 N 13 17 7 9 1017.3 1016.3 0.0
30/06:30pm 21.8 20.2 10.1 47 6.5 NNW 9 9 5 5 1017.1 1016.2 0.0
30/06:00pm 23.3 22.1 10.3 43 7.3 NNW 7 9 4 5 1016.9 1016.0 0.0
30/05:30pm 26.4 24.7 10.0 35 9.3 NW 9 17 5 9 1016.7 1015.8 0.0
30/05:00pm 27.5 25.3 9.4 32 10.2 NW 11 17 6 9 1016.6 1015.7 0.0
30/04:30pm 27.8 25.3 9.7 32 10.3 NW 13 20 7 11 1016.4 1015.5 0.0
30/04:00pm 28.1 25.7 8.8 29 10.8 NW 11 20 6 11 1016.4 1015.5 0.0
30/03:30pm 27.8 24.5 9.4 31 10.4 NNW 17 24 9 13 1016.5 1015.6 0.0
30/03:00pm 27.9 24.4 7.4 27 11.2 NW 15 24 8 13 1016.7 1015.8 0.0
30/02:30pm 27.8 25.5 9.1 31 10.5 NW 11 19 6 10 1017.0 1016.1 0.0
30/02:00pm 28.2 25.8 10.0 32 10.4 NNW 13 20 7 11 1017.3 1016.3 0.0
30/01:30pm 27.3 25.9 10.8 35 9.5 NW 9 19 5 10 1017.5 1016.5 0.0
30/01:00pm 26.9 24.9 10.2 35 9.5 W 11 19 6 10 1018.0 1017.1 0.0
30/12:30pm 26.1 25.0 10.7 38 8.8 NNW 7 13 4 7 1018.4 1017.5 0.0
30/12:00pm 25.7 24.2 12.0 42 8.0 NW 11 24 6 13 1019.1 1018.2 0.0
30/11:30am 24.7 23.9 11.7 44 7.5 W 7 13 4 7 1019.6 1018.6 0.0
30/11:00am 23.9 22.8 11.8 46 7.0 WNW 9 17 5 9 1020.1 1019.2 0.0
30/10:30am 23.3 22.2 11.8 48 6.6 W 9 17 5 9 1020.4 1019.5 0.0
30/10:00am 22.4 21.3 11.9 51 6.0 WNW 9 20 5 11 1020.9 1020.0 0.0
30/09:30am 21.9 19.8 11.3 51 6.0 W 13 19 7 10 1021.3 1020.4 0.0
30/09:00am 20.5 18.7 10.8 53 5.4 W 11 19 6 10 1021.5 1020.7 0.0
30/08:30am 18.9 18.9 11.0 60 4.4 S 2 11 1 6 1021.8 1020.9 0.0
30/08:00am 16.4 16.6 10.7 69 3.1 CALM 0 6 0 3 1021.5 1020.7 0.0
30/07:30am 13.8 13.8 9.8 77 2.1 CALM 0 0 0 0 1021.4 1020.5 0.0
30/07:00am 11.8 11.7 9.3 85 1.3 CALM 0 0 0 0 1021.2 1020.3 0.0
30/06:30am 10.3 10.1 9.1 92 0.6 CALM 0 0 0 0 1020.9 1020.0 0.0
30/06:00am 8.9 8.5 8.3 96 0.3 CALM 0 0 0 0 1020.5 1019.6 0.0
30/05:30am 8.0 7.4 7.4 96 0.3 CALM 0 0 0 0 1020.2 1019.3 0.0
30/05:00am 7.5 6.4 6.7 95 0.4 WSW 2 9 1 5 1019.9 1019.0 0.0
30/04:30am 8.6 8.1 7.8 95 0.4 CALM 0 0 0 0 1019.7 1018.7 0.0
30/04:00am 9.0 8.5 7.8 92 0.6 CALM 0 0 0 0 1019.6 1018.6 0.0
30/03:30am 9.1 7.5 8.1 93 0.5 ENE 6 9 3 5 1019.3 1018.4 0.0
30/03:00am 10.3 10.1 8.9 91 0.7 CALM 0 0 0 0 1019.3 1018.4 0.0
30/02:30am 10.6 10.7 10.0 96 0.3 CALM 0 0 0 0 1019.5 1018.5 0.0
30/02:00am 9.8 9.4 8.4 91 0.7 CALM 0 0 0 0 1019.5 1018.5 0.0
30/01:30am 11.0 10.7 8.6 85 1.2 CALM 0 0 0 0 1019.5 1018.5 0.0
30/01:00am 11.2 10.2 8.8 85 1.2 NE 4 6 2 3 1019.6 1018.6 0.0
30/12:30am 11.9 11.8 9.4 85 1.3 CALM 0 0 0 0 1019.8 1018.9 0.0
30/12:00am 13.2 13.4 10.4 83 1.5 CALM 0 0 0 0 1019.9 1019.0 0.0
 
Date/Time
EST
Tmp

°C
App
Tmp
°C
Dew
Point
°C
Rel
Hum
%
Delta-T

°C
Wind Press
QNH
hPa
Press
MSL
hPa
Rain
since
9 am
mm
Dir
 
Spd
km/h
Gust
km/h
Spd
kts
Gust
kts
29/11:30pm 13.1 13.2 10.1 82 1.6 CALM 0 6 0 3 1019.9 1019.0 0.0
29/11:00pm 13.6 12.3 9.8 78 2.0 WSW 7 9 4 5 1019.9 1019.0 0.0
29/10:30pm 14.0 12.7 9.8 76 2.2 WSW 7 7 4 4 1019.8 1018.9 0.0
29/10:00pm 14.4 14.4 9.7 73 2.5 CALM 0 0 0 0 1019.8 1018.9 0.0
29/09:30pm 15.7 13.9 7.9 59 4.0 S 7 9 4 5 1019.7 1018.7 0.0
29/09:00pm 16.1 16.3 10.4 69 3.1 CALM 0 0 0 0 1019.6 1018.6 0.0
29/08:30pm 19.7 16.8 9.8 52 5.4 N 15 17 8 9 1019.5 1018.5 0.0

Latest Capital City Observations: Canberra | Sydney | Melbourne | Brisbane | Adelaide | Perth | Hobart | Darwin

Other Formats:

Comma delimited format used in spreadsheet applications
http://www.bom.gov.au/fwo/IDQ60901/IDQ60901.94555.axf

JavaScript Object Notation format (JSON) in row-major order
http://www.bom.gov.au/fwo/IDQ60901/IDQ60901.94555.json